createdAt,value
2019-01-13T00:01:58.159Z,95236.91
2019-01-13T00:04:47.962Z,95236.91
2019-01-13T00:07:38.509Z,95223.95
2019-01-13T00:10:28.684Z,95221.86
2019-01-13T00:13:18.635Z,95229.69
2019-01-13T00:16:08.520Z,95226.80
2019-01-13T00:18:58.212Z,95215.92
2019-01-13T00:21:47.917Z,95227.52
2019-01-13T00:24:37.707Z,95227.23
2019-01-13T00:27:46.359Z,95224.15
2019-01-13T00:30:55.266Z,95227.44
2019-01-13T00:33:45.609Z,95227.44
2019-01-13T00:36:35.388Z,95226.48
2019-01-13T00:39:26.715Z,95224.34
2019-01-13T00:42:16.403Z,95225.77
2019-01-13T00:45:07.096Z,95223.76
2019-01-13T00:47:56.845Z,95223.39
2019-01-13T00:50:46.360Z,95231.89
2019-01-13T00:53:55.577Z,95230.80
2019-01-13T00:56:45.978Z,95214.98
2019-01-13T00:59:35.962Z,95214.98
2019-01-13T01:02:26.150Z,95227.66
2019-01-13T01:05:55.492Z,95215.65
2019-01-13T01:08:45.149Z,95228.61
2019-01-13T01:11:35.220Z,95221.50
2019-01-13T01:14:24.820Z,95222.11
2019-01-13T01:17:15.402Z,95222.39
2019-01-13T01:20:44.866Z,95214.89
2019-01-13T01:23:55.890Z,95224.25
2019-01-13T01:26:45.424Z,95224.25
2019-01-13T01:29:54.318Z,95226.34
2019-01-13T01:32:44.108Z,95226.34
2019-01-13T01:35:34.356Z,95236.41
2019-01-13T01:38:24.079Z,95230.33
2019-01-13T01:41:13.920Z,95230.33
2019-01-13T01:44:03.611Z,95220.83
2019-01-13T01:46:53.380Z,95222.11
2019-01-13T01:49:43.265Z,95228.52
2019-01-13T01:52:32.844Z,95226.48
2019-01-13T01:55:22.344Z,95224.63
2019-01-13T01:58:12.802Z,95226.29
2019-01-13T02:01:02.701Z,95220.83
2019-01-13T02:03:52.653Z,95217.31
2019-01-13T02:06:42.763Z,95222.97
2019-01-13T02:09:32.453Z,95230.80
2019-01-13T02:12:22.427Z,95223.78
2019-01-13T02:15:15.815Z,95228.52
2019-01-13T02:18:06.378Z,95229.23
2019-01-13T02:20:56.337Z,95221.88
2019-01-13T02:23:46.484Z,95222.69
2019-01-13T02:26:35.986Z,95227.30
2019-01-13T02:29:44.668Z,95228.70
2019-01-13T02:32:34.333Z,95228.70
2019-01-13T02:35:24.213Z,95236.78
2019-01-13T02:38:32.937Z,95222.40
2019-01-13T02:41:41.653Z,95227.14
2019-01-13T02:44:31.121Z,95227.14
2019-01-13T02:47:21.018Z,95230.37
2019-01-13T02:50:12.595Z,95222.34
2019-01-13T02:53:02.285Z,95226.72
2019-01-13T02:55:52.713Z,95234.84
2019-01-13T02:59:01.867Z,95204.06
2019-01-13T03:01:51.555Z,95204.06
2019-01-13T03:04:41.926Z,95228.76
2019-01-13T03:07:31.979Z,95224.72
2019-01-13T03:10:23.753Z,95205.69
2019-01-13T03:13:13.013Z,95230.23
2019-01-13T03:16:03.359Z,95214.50
2019-01-13T03:18:52.873Z,95202.41
2019-01-13T03:21:42.635Z,95212.31
2019-01-13T03:24:32.980Z,95211.65
2019-01-13T03:27:22.806Z,95210.94
2019-01-13T03:30:33.304Z,95207.66
2019-01-13T03:33:42.261Z,95216.20
2019-01-13T03:36:31.708Z,95216.20
2019-01-13T03:39:21.429Z,95219.44
2019-01-13T03:42:11.254Z,95220.00
2019-01-13T03:45:00.775Z,95225.65
2019-01-13T03:47:50.626Z,95213.03
2019-01-13T03:50:41.112Z,95223.98
2019-01-13T03:53:31.232Z,95232.64
2019-01-13T03:56:20.675Z,95237.49
2019-01-13T03:59:10.962Z,95228.47
2019-01-13T04:02:00.720Z,95223.06
2019-01-13T04:04:50.784Z,95219.83
2019-01-13T04:07:41.316Z,95217.16
2019-01-13T04:10:31.476Z,95209.24
2019-01-13T04:13:21.482Z,95197.62
2019-01-13T04:16:30.948Z,95213.80
2019-01-13T04:19:21.024Z,95213.80
2019-01-13T04:22:10.572Z,95210.19
2019-01-13T04:25:00.001Z,95204.09
2019-01-13T04:27:49.503Z,95204.09
2019-01-13T04:30:39.423Z,95200.30
2019-01-13T04:33:29.210Z,95197.30
2019-01-13T04:36:19.368Z,95218.90
2019-01-13T04:39:09.050Z,95210.46
2019-01-13T04:41:59.067Z,95208.59
2019-01-13T04:44:49.147Z,95205.12
2019-01-13T04:47:38.931Z,95204.31
2019-01-13T04:50:28.714Z,95195.38
2019-01-13T04:53:18.523Z,95194.19
2019-01-13T04:56:08.113Z,95203.73
2019-01-13T04:58:57.788Z,95213.05
2019-01-13T05:01:47.858Z,95208.25
2019-01-13T05:04:37.816Z,95207.37
2019-01-13T05:07:28.255Z,95205.09
2019-01-13T05:10:19.043Z,95206.02
2019-01-13T05:13:08.556Z,95194.88
2019-01-13T05:15:58.564Z,95194.88
2019-01-13T05:18:48.497Z,95207.45
2019-01-13T05:21:37.958Z,95199.59
2019-01-13T05:24:27.660Z,95210.89
2019-01-13T05:27:17.097Z,95216.73
2019-01-13T05:30:10.528Z,95199.72
2019-01-13T05:33:19.451Z,95204.84
2019-01-13T05:36:09.435Z,95204.84
2019-01-13T05:38:58.863Z,95210.09
2019-01-13T05:41:48.314Z,95190.95
2019-01-13T05:44:38.022Z,95202.77
2019-01-13T05:47:27.782Z,95199.62
2019-01-13T05:50:18.944Z,95202.84
2019-01-13T05:53:08.870Z,95205.00
2019-01-13T05:55:58.385Z,95201.77
2019-01-13T06:02:16.331Z,95197.70
2019-01-13T06:05:27.004Z,95209.66
2019-01-13T06:08:16.440Z,95204.38
2019-01-13T06:11:06.046Z,95204.01
2019-01-13T06:13:55.832Z,95204.01
2019-01-13T06:16:45.707Z,95203.80
2019-01-13T06:19:35.491Z,95210.09
2019-01-13T06:22:25.446Z,95209.33
2019-01-13T06:25:15.856Z,95210.14
2019-01-13T06:28:05.687Z,95217.84
2019-01-13T06:30:55.915Z,95200.86
2019-01-13T06:33:45.506Z,95203.09
2019-01-13T06:36:35.917Z,95201.19
2019-01-13T06:39:26.357Z,95196.31
2019-01-13T06:42:35.079Z,95200.38
2019-01-13T06:45:43.738Z,95196.09
2019-01-13T06:48:33.420Z,95196.09
2019-01-13T06:51:22.893Z,95185.50
2019-01-13T06:54:13.031Z,95189.02
2019-01-13T06:57:02.748Z,95201.96
2019-01-13T06:59:52.190Z,95200.75
2019-01-13T07:02:41.649Z,95199.47
2019-01-13T07:05:31.626Z,95196.49
2019-01-13T07:08:21.362Z,95203.72
2019-01-13T07:11:10.962Z,95206.37
2019-01-13T07:14:00.902Z,95200.23
2019-01-13T07:17:09.693Z,95201.52
2019-01-13T07:22:57.041Z,95187.59
2019-01-13T07:26:06.345Z,95187.11
2019-01-13T07:28:56.782Z,95197.02
2019-01-13T07:31:46.671Z,95190.02
2019-01-13T07:37:45.815Z,95186.48
2019-01-13T07:40:35.768Z,95174.27
2019-01-13T07:43:45.157Z,95173.14
2019-01-13T07:46:35.147Z,95183.18
2019-01-13T07:49:25.587Z,95176.84
2019-01-13T07:52:15.444Z,95182.75
2019-01-13T07:55:07.066Z,95173.58
2019-01-13T07:57:56.845Z,95164.30
2019-01-13T08:00:46.530Z,95161.13
2019-01-13T08:03:37.079Z,95168.17
2019-01-13T08:06:26.861Z,95167.84
2019-01-13T08:09:16.559Z,95166.41
2019-01-13T08:12:06.424Z,95172.84
2019-01-13T08:14:56.380Z,95163.19
2019-01-13T08:17:46.486Z,95164.75
2019-01-13T08:20:35.996Z,95160.57
2019-01-13T08:23:26.183Z,95159.80
2019-01-13T08:26:35.239Z,95154.52
2019-01-13T08:29:25.017Z,95156.24
2019-01-13T08:32:14.862Z,95156.63
2019-01-13T08:35:43.972Z,95159.92
2019-01-13T08:38:33.651Z,95157.17
2019-01-13T08:41:23.178Z,95157.44
2019-01-13T08:44:12.915Z,95152.84
2019-01-13T08:47:42.337Z,95149.25
2019-01-13T08:50:32.421Z,95145.31
2019-01-13T08:53:23.372Z,95135.72
2019-01-13T08:56:12.693Z,95139.63
2019-01-13T08:59:03.052Z,95124.90
2019-01-13T09:01:52.732Z,95126.66
2019-01-13T09:04:42.539Z,95135.35
2019-01-13T09:07:32.331Z,95141.33
2019-01-13T09:10:22.179Z,95135.17
2019-01-13T09:13:12.533Z,95138.73
2019-01-13T09:16:02.393Z,95135.68
2019-01-13T09:18:52.706Z,95132.33
2019-01-13T09:21:42.235Z,95138.60
2019-01-13T09:24:31.923Z,95136.59
2019-01-13T09:27:22.184Z,95136.27
2019-01-13T09:30:15.234Z,95134.95
2019-01-13T09:33:05.654Z,95137.07
2019-01-13T09:35:56.458Z,95140.14
2019-01-13T09:38:46.925Z,95133.41
2019-01-13T09:41:36.854Z,95137.52
2019-01-13T09:44:27.006Z,95128.60
2019-01-13T09:47:16.429Z,95129.63
2019-01-13T09:50:07.372Z,95122.53
2019-01-13T09:52:57.027Z,95111.77
2019-01-13T09:55:46.732Z,95101.77
2019-01-13T09:58:37.849Z,95085.86
2019-01-13T10:01:29.017Z,95088.43
2019-01-13T10:04:37.724Z,95067.45
2019-01-13T10:07:27.495Z,95068.91
2019-01-13T10:10:17.748Z,95069.88
2019-01-13T10:13:07.952Z,95062.34
2019-01-13T10:15:57.919Z,95045.83
2019-01-13T10:18:47.689Z,95039.56
2019-01-13T10:21:38.610Z,95050.91
2019-01-13T10:24:28.588Z,95039.68
2019-01-13T10:27:18.942Z,95033.45
2019-01-13T10:33:27.569Z,95013.64
2019-01-13T10:36:17.397Z,95014.58
2019-01-13T10:39:48.786Z,95004.62
2019-01-13T10:42:37.796Z,95005.91
2019-01-13T10:48:25.491Z,94983.83
2019-01-13T10:51:54.782Z,94983.80
2019-01-13T10:58:15.313Z,94980.23
2019-01-13T11:01:24.034Z,94970.72
2019-01-13T11:04:13.631Z,94976.65
2019-01-13T11:07:03.403Z,94977.41
2019-01-13T11:09:53.030Z,94968.53
2019-01-13T11:12:42.904Z,94962.53
2019-01-13T11:15:32.936Z,94969.13
2019-01-13T11:18:22.631Z,94963.26
2019-01-13T11:21:12.444Z,94947.12
2019-01-13T11:24:02.541Z,94948.57
2019-01-13T11:26:52.354Z,94921.09
2019-01-13T11:29:42.328Z,94919.27
2019-01-13T11:32:32.873Z,94919.56
2019-01-13T11:35:41.881Z,94908.95
2019-01-13T11:38:32.478Z,94912.96
2019-01-13T11:41:22.068Z,94891.24
2019-01-13T11:44:12.272Z,94897.66
2019-01-13T11:47:02.325Z,94883.48
2019-01-13T11:50:12.652Z,94882.52
2019-01-13T11:53:02.801Z,94873.72
2019-01-13T11:55:52.794Z,94872.02
2019-01-13T11:58:42.323Z,94864.63
2019-01-13T12:01:32.116Z,94853.90
2019-01-13T12:04:40.779Z,94846.85
2019-01-13T12:07:42.360Z,94830.23
2019-01-13T12:10:32.594Z,94830.23
2019-01-13T12:13:22.351Z,94824.44
2019-01-13T12:16:12.265Z,94813.39
2019-01-13T12:19:01.692Z,94802.13
2019-01-13T12:21:51.216Z,94779.80
2019-01-13T12:24:40.900Z,94777.86
2019-01-13T12:27:31.114Z,94757.39
2019-01-13T12:30:23.082Z,94756.75
2019-01-13T12:33:13.010Z,94741.69
2019-01-13T12:36:02.649Z,94730.30
2019-01-13T12:38:52.468Z,94725.00
2019-01-13T12:42:01.118Z,94727.09
2019-01-13T12:44:50.645Z,94718.59
2019-01-13T12:47:59.368Z,94722.13
2019-01-13T12:51:08.272Z,94719.72
2019-01-13T12:54:16.919Z,94713.32
2019-01-13T12:57:25.757Z,94703.38
2019-01-13T13:00:34.755Z,94703.38
2019-01-13T13:03:31.416Z,94706.11
2019-01-13T13:06:35.052Z,94689.26
2019-01-13T13:09:24.808Z,94689.26
2019-01-13T13:12:14.593Z,94684.62
2019-01-13T13:15:05.130Z,94677.09
2019-01-13T13:18:13.856Z,94663.77
2019-01-13T13:21:04.101Z,94663.77
2019-01-13T13:23:52.826Z,94660.56
2019-01-13T13:26:42.423Z,94644.20
2019-01-13T13:29:51.377Z,94641.63
2019-01-13T13:32:41.233Z,94641.63
2019-01-13T13:35:31.435Z,94638.75
2019-01-13T13:38:21.428Z,94634.41
2019-01-13T13:41:30.077Z,94628.80
2019-01-13T13:44:20.723Z,94628.80
2019-01-13T13:47:29.671Z,94612.71
2019-01-13T13:50:39.665Z,94616.35
2019-01-13T13:53:48.902Z,94608.33
2019-01-13T13:56:57.855Z,94608.33
2019-01-13T13:59:48.282Z,94617.16
2019-01-13T14:02:38.866Z,94603.91
2019-01-13T14:05:28.788Z,94603.91
2019-01-13T14:08:18.229Z,94605.52
2019-01-13T14:11:08.336Z,94603.26
2019-01-13T14:13:59.168Z,94602.45
2019-01-13T14:16:49.795Z,94596.54
2019-01-13T14:19:39.528Z,94601.19
2019-01-13T14:22:29.591Z,94606.05
2019-01-13T14:25:40.448Z,94601.11
2019-01-13T14:28:31.916Z,94576.58
2019-01-13T14:31:24.736Z,94576.58
2019-01-13T14:34:14.960Z,94564.09
2019-01-13T14:37:05.181Z,94558.16
2019-01-13T14:39:55.184Z,94558.66
2019-01-13T14:43:04.377Z,94554.62
2019-01-13T14:45:54.323Z,94545.00
2019-01-13T14:48:44.476Z,94523.34
2019-01-13T14:51:38.324Z,94520.47
2019-01-13T14:54:47.013Z,94521.59
2019-01-13T14:57:38.036Z,94496.08
2019-01-13T15:00:31.187Z,94505.86
2019-01-13T15:03:21.419Z,94502.17
2019-01-13T15:06:11.916Z,94484.03
2019-01-13T15:09:01.763Z,94466.21
2019-01-13T15:11:51.392Z,94466.05
2019-01-13T15:14:42.190Z,94471.98
2019-01-13T15:17:32.091Z,94466.22
2019-01-13T15:20:22.803Z,94464.75
2019-01-13T15:23:12.367Z,94467.16
2019-01-13T15:26:01.969Z,94456.88
2019-01-13T15:28:51.432Z,94447.26
2019-01-13T15:32:00.662Z,94452.53
2019-01-13T15:35:09.695Z,94448.04
2019-01-13T15:38:19.627Z,94446.08
2019-01-13T15:41:09.851Z,94427.92
2019-01-13T15:43:59.638Z,94423.25
2019-01-13T15:46:50.848Z,94426.94
2019-01-13T15:49:40.938Z,94417.00
2019-01-13T15:52:30.843Z,94390.19
2019-01-13T15:55:20.925Z,94396.27
2019-01-13T15:58:10.681Z,94378.60
2019-01-13T16:01:00.306Z,94381.83
2019-01-13T16:03:50.925Z,94396.11
2019-01-13T16:06:59.687Z,94382.77
2019-01-13T16:10:01.687Z,94382.63
2019-01-13T16:12:51.349Z,94381.81
2019-01-13T16:16:00.613Z,94371.67
2019-01-13T16:19:11.015Z,94367.30
2019-01-13T16:22:00.872Z,94363.77
2019-01-13T16:24:50.907Z,94364.39
2019-01-13T16:27:42.098Z,94348.66
2019-01-13T16:34:02.393Z,94342.14
2019-01-13T16:43:42.937Z,94342.91
2019-01-13T16:46:32.897Z,94350.45
2019-01-13T16:49:22.646Z,94329.18
2019-01-13T16:52:12.117Z,94330.46
2019-01-13T16:55:02.709Z,94319.24
2019-01-13T16:57:52.714Z,94328.07
2019-01-13T17:00:42.751Z,94309.76
2019-01-13T17:03:36.579Z,94305.09
2019-01-13T17:06:26.556Z,94298.48
2019-01-13T17:09:16.052Z,94297.20
2019-01-13T17:12:08.216Z,94302.63
2019-01-13T17:14:57.898Z,94296.37
2019-01-13T17:17:47.392Z,94295.36
2019-01-13T17:20:36.915Z,94309.64
2019-01-13T17:23:26.601Z,94319.30
2019-01-13T17:26:41.071Z,94300.89
2019-01-13T17:29:50.968Z,94303.95
2019-01-13T17:32:41.058Z,94294.25
2019-01-13T17:35:30.730Z,94307.73
2019-01-13T17:38:20.566Z,94274.64
2019-01-13T17:41:10.815Z,94290.74
2019-01-13T17:44:01.197Z,94282.01
2019-01-13T17:46:51.199Z,94305.82
2019-01-13T17:49:40.926Z,94263.49
2019-01-13T17:52:50.111Z,94256.02
2019-01-13T17:56:22.517Z,94256.02
2019-01-13T17:59:16.096Z,94257.73
2019-01-13T18:02:06.846Z,94262.89
2019-01-13T18:04:56.371Z,94250.32
2019-01-13T18:07:45.885Z,94251.61
2019-01-13T18:10:47.327Z,94244.16
2019-01-13T18:13:48.804Z,94261.01
2019-01-13T18:16:38.485Z,94257.15
2019-01-13T18:19:28.416Z,94246.66
2019-01-13T18:22:16.879Z,94228.95
2019-01-13T18:25:06.740Z,94224.94
2019-01-13T18:27:56.187Z,94245.38
2019-01-13T18:34:34.661Z,94223.45
2019-01-13T18:37:24.102Z,94223.45
2019-01-13T18:40:16.378Z,94218.80
2019-01-13T18:43:05.453Z,94211.02
2019-01-13T18:45:55.953Z,94221.63
2019-01-13T18:48:44.730Z,94213.59
2019-01-13T18:51:53.638Z,94228.42
2019-01-13T18:54:43.561Z,94228.42
2019-01-13T18:57:33.787Z,94219.67
2019-01-13T19:00:24.097Z,94210.35
2019-01-13T19:03:33.323Z,94209.97
2019-01-13T19:06:42.333Z,94194.66
2019-01-13T19:10:12.976Z,94194.66
2019-01-13T19:13:09.015Z,94192.44
2019-01-13T19:16:18.484Z,94202.73
2019-01-13T19:19:28.279Z,94163.03
2019-01-13T19:22:37.508Z,94163.03
2019-01-13T19:25:46.251Z,94195.39
2019-01-13T19:28:35.920Z,94164.63
2019-01-13T19:31:25.403Z,94162.42
2019-01-13T19:34:34.777Z,94167.93
2019-01-13T19:37:24.540Z,94167.93
2019-01-13T19:40:16.017Z,94140.96
2019-01-13T19:43:05.949Z,94149.23
2019-01-13T19:46:14.677Z,94142.00
2019-01-13T19:49:04.979Z,94135.88
2019-01-13T19:52:13.660Z,94133.06
2019-01-13T19:58:20.093Z,94141.45
2019-01-13T20:01:10.067Z,94132.57
2019-01-13T20:04:18.815Z,94142.23
2019-01-13T20:07:10.582Z,94150.93
2019-01-13T20:10:01.933Z,94138.09
2019-01-13T20:12:52.380Z,94128.59
2019-01-13T20:15:42.159Z,94142.04
2019-01-13T20:18:31.732Z,94129.72
2019-01-13T20:21:21.596Z,94127.27
2019-01-13T20:24:12.298Z,94127.27
2019-01-13T20:27:02.179Z,94100.48
2019-01-13T20:29:52.080Z,94100.48
2019-01-13T20:32:41.851Z,94110.53
2019-01-13T20:35:31.524Z,94105.56
2019-01-13T20:38:21.271Z,94105.56
2019-01-13T20:41:29.940Z,94079.88
2019-01-13T20:44:19.875Z,94079.88
2019-01-13T20:47:10.140Z,94083.61
2019-01-13T20:50:19.357Z,94070.44
2019-01-13T20:53:09.245Z,94062.86
2019-01-13T20:56:18.193Z,94050.02
2019-01-13T20:59:07.726Z,94050.02
2019-01-13T21:01:57.353Z,94063.31
2019-01-13T21:05:29.447Z,94064.94
2019-01-13T21:08:19.150Z,94062.70
2019-01-13T21:11:08.692Z,94062.91
2019-01-13T21:13:58.573Z,94057.27
2019-01-13T21:16:49.220Z,94049.66
2019-01-13T21:19:39.659Z,94070.45
2019-01-13T21:22:34.372Z,94063.45
2019-01-13T21:25:24.215Z,94041.63
2019-01-13T21:28:33.391Z,94065.53
2019-01-13T21:34:20.039Z,94077.21
2019-01-13T21:37:09.795Z,94057.89
2019-01-13T21:39:59.769Z,94050.69
2019-01-13T21:43:08.708Z,94053.16
2019-01-13T21:45:58.292Z,94053.16
2019-01-13T21:49:07.197Z,94042.20
2019-01-13T21:51:57.206Z,94042.20
2019-01-13T21:54:46.953Z,94040.87
2019-01-13T21:57:36.932Z,94052.85
2019-01-13T22:00:27.182Z,94038.87
2019-01-13T22:03:17.128Z,94049.70
2019-01-13T22:06:06.997Z,94046.59
2019-01-13T22:08:57.509Z,94032.77
2019-01-13T22:11:46.960Z,94050.16
2019-01-13T22:14:36.382Z,94038.72
2019-01-13T22:17:26.162Z,94034.86
2019-01-13T22:20:56.348Z,94026.59
2019-01-13T22:23:46.296Z,94017.81
2019-01-13T22:26:38.560Z,94039.70
2019-01-13T22:29:28.024Z,94039.70
2019-01-13T22:32:36.937Z,94034.06
2019-01-13T22:35:26.805Z,94034.06
2019-01-13T22:38:16.390Z,94040.08
2019-01-13T22:41:06.364Z,94052.23
2019-01-13T22:43:57.761Z,94063.71
2019-01-13T22:46:47.795Z,94062.13
2019-01-13T22:49:38.461Z,94082.73
2019-01-13T22:52:28.395Z,94066.63
2019-01-13T22:55:18.795Z,94080.34
2019-01-13T22:58:08.256Z,94090.27
2019-01-13T23:01:37.808Z,94087.09
2019-01-13T23:04:28.011Z,94084.13
2019-01-13T23:07:18.836Z,94104.47
2019-01-13T23:10:09.041Z,94103.03
2019-01-13T23:12:58.488Z,94100.95
2019-01-13T23:15:48.664Z,94107.05
2019-01-13T23:18:38.200Z,94107.42
2019-01-13T23:21:28.460Z,94100.98
2019-01-13T23:24:19.444Z,94098.59
2019-01-13T23:27:09.668Z,94104.23
2019-01-13T23:30:18.817Z,94089.06
2019-01-13T23:33:09.614Z,94089.06
2019-01-13T23:36:18.640Z,94096.95
2019-01-13T23:39:09.958Z,94101.11
2019-01-13T23:42:19.381Z,94111.59
2019-01-13T23:45:09.638Z,94111.59
2019-01-13T23:48:00.243Z,94115.77
2019-01-13T23:50:51.097Z,94121.75
2019-01-13T23:53:40.733Z,94111.14
2019-01-13T23:56:31.107Z,94118.84
2019-01-13T23:59:39.918Z,94114.58
